^^
Grace C. Lehan Memorial Weather Station Historical Data
Daily Summary for December 8, 2021 Units:  Both    English   Metric
Daily Weekly Monthly Yearly
  High: Low: Average:
Temperature: 37 °F /  2.8 °C 31.5 °F /  -0.3 °C 34 °F /  1.1 °C
Dew Point: 30.7 °F /  -0.7 °C 24.6 °F /  -4.1 °C 27 °F /  -2.8 °C
Humidity: 92% 64.3% 76%
Wind Speed: 4mph /  6.4km/h - 0.5mph /  0.8km/h
Wind Gust: 9mph /  14.5km/h - -
Wind- - WSW
Pressure: 30.15 in /  1020.9 hPa 29.85 in /  1010.7 hPa -
Precipitation: 0.00 in /  0 mm    
 
 
Tabular Data for December 8, 2021
Time Temperature Dew Point Pressure Wind Wind Speed Wind Gust Humidity Rainfall Rate (Hourly) solar
00:04 32.4 °F /  0.2 °C 25.3 °F /  -3.7 °C 30.15in /  1020.9hPa Calm     74.7% 0.00in /  0mm 0 W/m2
00:09 32.4 °F /  0.2 °C 25 °F /  -3.9 °C 30.15in /  1020.9hPa Calm     74% 0.00in /  0mm 0 W/m2
00:14 32.4 °F /  0.2 °C 24.9 °F /  -3.9 °C 30.15in /  1020.9hPa Calm     73.8% 0.00in /  0mm 0 W/m2
00:19 32.4 °F /  0.2 °C 24.7 °F /  -4.1 °C 30.15in /  1020.9hPa Calm     73% 0.00in /  0mm 0 W/m2
00:24 32.4 °F /  0.2 °C 24.7 °F /  -4.1 °C 30.15in /  1020.9hPa Calm     73% 0.00in /  0mm 0 W/m2
00:29 32.4 °F /  0.2 °C 24.6 °F /  -4.1 °C 30.15in /  1020.9hPa Calm     72.5% 0.00in /  0mm 0 W/m2
00:34 32.4 °F /  0.2 °C 24.7 °F /  -4.1 °C 30.15in /  1020.9hPa Calm     73% 0.00in /  0mm 0 W/m2
00:39 32.5 °F /  0.3 °C 24.8 °F /  -4 °C 30.15in /  1020.9hPa Calm     73% 0.00in /  0mm 0 W/m2
00:44 32.5 °F /  0.3 °C 25.1 °F /  -3.8 °C 30.15in /  1020.9hPa Calm     73.7% 0.00in /  0mm 0 W/m2
00:49 32.5 °F /  0.3 °C 25.3 °F /  -3.7 °C 30.15in /  1020.9hPa Calm     74.4% 0.00in /  0mm 0 W/m2
00:54 32.6 °F /  0.3 °C 25.6 °F /  -3.6 °C 30.15in /  1020.9hPa Calm     75% 0.00in /  0mm 0 W/m2
00:59 32.6 °F /  0.3 °C 25.3 °F /  -3.7 °C 30.14in /  1020.5hPa Calm     74% 0.00in /  0mm 0 W/m2
01:04 32.6 °F /  0.3 °C 25.5 °F /  -3.6 °C 30.14in /  1020.5hPa Calm     74.6% 0.00in /  0mm 0 W/m2
01:09 32.6 °F /  0.3 °C 25.6 °F /  -3.6 °C 30.14in /  1020.5hPa WSW 0.1mph /  0.2km/h 2mph /  3.2km/h 75% 0.00in /  0mm 0 W/m2
01:14 32.7 °F /  0.4 °C 25.7 °F /  -3.5 °C 30.14in /  1020.5hPa Calm   2mph /  3.2km/h 75% 0.00in /  0mm 0 W/m2
01:19 32.8 °F /  0.4 °C 25.7 °F /  -3.5 °C 30.14in /  1020.5hPa WSW 0.4mph /  0.6km/h 2mph /  3.2km/h 75% 0.00in /  0mm 0 W/m2
01:24 32.8 °F /  0.4 °C 25.5 °F /  -3.6 °C 30.15in /  1020.9hPa WSW 0.2mph /  0.3km/h 2mph /  3.2km/h 74.3% 0.00in /  0mm 0 W/m2
01:29 32.8 °F /  0.4 °C 25.7 °F /  -3.5 °C 30.15in /  1020.9hPa Calm   2mph /  3.2km/h 74.9% 0.00in /  0mm 0 W/m2
01:34 32.7 °F /  0.4 °C 25.7 °F /  -3.5 °C 30.14in /  1020.5hPa Calm   2mph /  3.2km/h 75% 0.00in /  0mm 0 W/m2
01:39 32.7 °F /  0.4 °C 25.7 °F /  -3.5 °C 30.14in /  1020.5hPa WSW 0.3mph /  0.5km/h 3mph /  4.8km/h 75% 0.00in /  0mm 0 W/m2
01:44 32.6 °F /  0.3 °C 25.6 °F /  -3.6 °C 30.14in /  1020.5hPa WSW 0.3mph /  0.5km/h 3mph /  4.8km/h 75% 0.00in /  0mm 0 W/m2
01:49 32.6 °F /  0.3 °C 25.6 °F /  -3.6 °C 30.14in /  1020.5hPa WSW 0.1mph /  0.2km/h 3mph /  4.8km/h 75% 0.00in /  0mm 0 W/m2
01:54 32.6 °F /  0.3 °C 25.6 °F /  -3.6 °C 30.14in /  1020.5hPa WSW 0.1mph /  0.2km/h 3mph /  4.8km/h 75% 0.00in /  0mm 0 W/m2
01:59 32.5 °F /  0.3 °C 25.5 °F /  -3.6 °C 30.14in /  1020.5hPa Calm   3mph /  4.8km/h 75% 0.00in /  0mm 0 W/m2
02:04 32.5 °F /  0.3 °C 25.5 °F /  -3.6 °C 30.14in /  1020.5hPa WSW 0.2mph /  0.3km/h 3mph /  4.8km/h 75% 0.00in /  0mm 0 W/m2
02:09 32.4 °F /  0.2 °C 25.4 °F /  -3.7 °C 30.14in /  1020.5hPa Calm   3mph /  4.8km/h 75% 0.00in /  0mm 0 W/m2
02:14 32.4 °F /  0.2 °C 25.6 °F /  -3.6 °C 30.14in /  1020.5hPa Calm   3mph /  4.8km/h 75.6% 0.00in /  0mm 0 W/m2
02:19 32.3 °F /  0.2 °C 25.6 °F /  -3.6 °C 30.14in /  1020.5hPa Calm   3mph /  4.8km/h 76% 0.00in /  0mm 0 W/m2
02:24 32.3 °F /  0.2 °C 25.6 °F /  -3.6 °C 30.13in /  1020.2hPa Calm   3mph /  4.8km/h 76% 0.00in /  0mm 0 W/m2
02:29 32.2 °F /  0.1 °C 25.5 °F /  -3.6 °C 30.13in /  1020.2hPa Calm   3mph /  4.8km/h 76% 0.00in /  0mm 0 W/m2
02:34 32.2 °F /  0.1 °C 25.8 °F /  -3.4 °C 30.13in /  1020.2hPa WSW 0.1mph /  0.2km/h 3mph /  4.8km/h 77% 0.00in /  0mm 0 W/m2
02:39 32.2 °F /  0.1 °C 25.8 °F /  -3.4 °C 30.13in /  1020.2hPa WSW 0.1mph /  0.2km/h 3mph /  4.8km/h 77% 0.00in /  0mm 0 W/m2
02:44 32.1 °F /  0.1 °C 25.8 °F /  -3.4 °C 30.13in /  1020.2hPa West 0.1mph /  0.2km/h 4mph /  6.4km/h 77% 0.00in /  0mm 0 W/m2
02:49 32.1 °F /  0.1 °C 25.8 °F /  -3.4 °C 30.12in /  1019.9hPa West 0.5mph /  0.8km/h 4mph /  6.4km/h 77% 0.00in /  0mm 0 W/m2
02:54 32.2 °F /  0.1 °C 25.8 °F /  -3.4 °C 30.12in /  1019.9hPa Calm   4mph /  6.4km/h 77% 0.00in /  0mm 0 W/m2
02:59 32.1 °F /  0.1 °C 25.7 °F /  -3.5 °C 30.12in /  1019.9hPa Calm   4mph /  6.4km/h 77% 0.00in /  0mm 0 W/m2
03:04 32.1 °F /  0.1 °C 25.7 °F /  -3.5 °C 30.12in /  1019.9hPa West 0.1mph /  0.2km/h 4mph /  6.4km/h 77% 0.00in /  0mm 0 W/m2
03:09 32.1 °F /  0.1 °C 25.7 °F /  -3.5 °C 30.12in /  1019.9hPa West 0.1mph /  0.2km/h 2mph /  3.2km/h 77% 0.00in /  0mm 0 W/m2
03:14 32.1 °F /  0.1 °C 25.7 °F /  -3.5 °C 30.12in /  1019.9hPa West 0.1mph /  0.2km/h 3mph /  4.8km/h 77% 0.00in /  0mm 0 W/m2
03:19 32.1 °F /  0.1 °C 25.8 °F /  -3.4 °C 30.11in /  1019.5hPa Calm   3mph /  4.8km/h 77.4% 0.00in /  0mm 0 W/m2
03:24 32.1 °F /  0.1 °C 25.7 °F /  -3.5 °C 30.12in /  1019.9hPa West 0.1mph /  0.2km/h 3mph /  4.8km/h 77% 0.00in /  0mm 0 W/m2
03:29 32.1 °F /  0.1 °C 25.8 °F /  -3.4 °C 30.12in /  1019.9hPa Calm   3mph /  4.8km/h 77.3% 0.00in /  0mm 0 W/m2
03:34 32.1 °F /  0.1 °C 26 °F /  -3.3 °C 30.11in /  1019.5hPa Calm   3mph /  4.8km/h 78% 0.00in /  0mm 0 W/m2
03:39 32.1 °F /  0.1 °C 26 °F /  -3.3 °C 30.12in /  1019.9hPa Calm   1mph /  1.6km/h 78% 0.00in /  0mm 0 W/m2
03:44 32.1 °F /  0.1 °C 26.1 °F /  -3.3 °C 30.12in /  1019.9hPa West 0.1mph /  0.2km/h 1mph /  1.6km/h 78% 0.00in /  0mm 0 W/m2
03:49 32.1 °F /  0.1 °C 26.1 °F /  -3.3 °C 30.12in /  1019.9hPa Calm   1mph /  1.6km/h 78% 0.00in /  0mm 0 W/m2
03:54 32.1 °F /  0.1 °C 26.1 °F /  -3.3 °C 30.12in /  1019.9hPa Calm   1mph /  1.6km/h 78% 0.00in /  0mm 0 W/m2
03:59 32.1 °F /  0.1 °C 26.1 °F /  -3.3 °C 30.12in /  1019.9hPa Calm   1mph /  1.6km/h 78% 0.00in /  0mm 0 W/m2
04:00 32.1 °F /  0.1 °C 26 °F /  -3.3 °C 30.12in /  1019.9hPa Calm   1mph /  1.6km/h 78% 0.00in /  0mm 0 W/m2
04:09 32.1 °F /  0.1 °C 26 °F /  -3.3 °C 30.12in /  1019.9hPa West 0.1mph /  0.2km/h 1mph /  1.6km/h 78% 0.00in /  0mm 0 W/m2
04:14 32.1 °F /  0.1 °C 26 °F /  -3.3 °C 30.12in /  1019.9hPa Calm   1mph /  1.6km/h 78% 0.00in /  0mm 0 W/m2
04:19 32.1 °F /  0.1 °C 26 °F /  -3.3 °C 30.12in /  1019.9hPa Calm   1mph /  1.6km/h 78% 0.00in /  0mm 0 W/m2
04:24 32 °F /  0 °C 25.8 °F /  -3.4 °C 30.12in /  1019.9hPa Calm   1mph /  1.6km/h 77.5% 0.00in /  0mm 0 W/m2
04:29 32 °F /  0 °C 26.4 °F /  -3.1 °C 30.12in /  1019.9hPa Calm   1mph /  1.6km/h 79.6% 0.00in /  0mm 0 W/m2
04:34 31.9 °F /  -0.1 °C 25.9 °F /  -3.4 °C 30.12in /  1019.9hPa Calm   1mph /  1.6km/h 78% 0.00in /  0mm 0 W/m2
04:39 31.9 °F /  -0.1 °C 25.8 °F /  -3.4 °C 30.13in /  1020.2hPa Calm     78% 0.00in /  0mm 0 W/m2
04:44 31.8 °F /  -0.1 °C 25.7 °F /  -3.5 °C 30.13in /  1020.2hPa Calm     78% 0.00in /  0mm 0 W/m2
04:49 31.7 °F /  -0.2 °C 25.6 °F /  -3.6 °C 30.12in /  1019.9hPa Calm     78% 0.00in /  0mm 0 W/m2
04:54 31.7 °F /  -0.2 °C 25.6 °F /  -3.6 °C 30.11in /  1019.5hPa Calm     78% 0.00in /  0mm 0 W/m2
04:59 31.6 °F /  -0.2 °C 25.5 °F /  -3.6 °C 30.12in /  1019.9hPa Calm     78% 0.00in /  0mm 0 W/m2
05:04 31.6 °F /  -0.2 °C 25.5 °F /  -3.6 °C 30.12in /  1019.9hPa Calm     78% 0.00in /  0mm 0 W/m2
05:09 31.5 °F /  -0.3 °C 25.4 °F /  -3.7 °C 30.13in /  1020.2hPa West 0.1mph /  0.2km/h 1mph /  1.6km/h 78% 0.00in /  0mm 0 W/m2
05:14 31.5 °F /  -0.3 °C 25.4 °F /  -3.7 °C 30.13in /  1020.2hPa Calm   1mph /  1.6km/h 78% 0.00in /  0mm 0 W/m2
05:19 31.5 °F /  -0.3 °C 25.6 °F /  -3.6 °C 30.13in /  1020.2hPa Calm   1mph /  1.6km/h 78.4% 0.00in /  0mm 0 W/m2
05:24 31.6 °F /  -0.2 °C 25.5 °F /  -3.6 °C 30.13in /  1020.2hPa Calm   1mph /  1.6km/h 78% 0.00in /  0mm 0 W/m2
05:29 31.7 °F /  -0.2 °C 25.6 °F /  -3.6 °C 30.13in /  1020.2hPa Calm   1mph /  1.6km/h 78% 0.00in /  0mm 0 W/m2
05:34 31.7 °F /  -0.2 °C 25.7 °F /  -3.5 °C 30.13in /  1020.2hPa Calm   1mph /  1.6km/h 78% 0.00in /  0mm 0 W/m2
05:39 31.8 °F /  -0.1 °C 25.7 °F /  -3.5 °C 30.13in /  1020.2hPa Calm   1mph /  1.6km/h 78% 0.00in /  0mm 0 W/m2
05:44 31.9 °F /  -0.1 °C 25.8 °F /  -3.4 °C 30.13in /  1020.2hPa Calm   1mph /  1.6km/h 78% 0.00in /  0mm 0 W/m2
05:49 32 °F /  0 °C 25.9 °F /  -3.4 °C 30.13in /  1020.2hPa Calm   1mph /  1.6km/h 78% 0.00in /  0mm 0 W/m2
05:54 32 °F /  0 °C 26 °F /  -3.3 °C 30.13in /  1020.2hPa Calm   1mph /  1.6km/h 78% 0.00in /  0mm 0 W/m2
05:59 32.1 °F /  0.1 °C 26 °F /  -3.3 °C 30.13in /  1020.2hPa Calm   1mph /  1.6km/h 78% 0.00in /  0mm 0 W/m2
06:04 32.2 °F /  0.1 °C 26.1 °F /  -3.3 °C 30.12in /  1019.9hPa Calm   1mph /  1.6km/h 78% 0.00in /  0mm 0 W/m2
06:09 32.2 °F /  0.1 °C 25.9 °F /  -3.4 °C 30.12in /  1019.9hPa Calm   1mph /  1.6km/h 77.3% 0.00in /  0mm 0 W/m2
06:14 32.3 °F /  0.2 °C 26.2 °F /  -3.2 °C 30.12in /  1019.9hPa Calm   1mph /  1.6km/h 78% 0.00in /  0mm 0 W/m2
06:19 32.3 °F /  0.2 °C 26 °F /  -3.3 °C 30.12in /  1019.9hPa Calm   1mph /  1.6km/h 77.4% 0.00in /  0mm 0 W/m2
06:24 32.3 °F /  0.2 °C 25.9 °F /  -3.4 °C 30.12in /  1019.9hPa Calm   1mph /  1.6km/h 77% 0.00in /  0mm 0 W/m2
06:29 32.3 °F /  0.2 °C 25.9 °F /  -3.4 °C 30.12in /  1019.9hPa Calm   1mph /  1.6km/h 77% 0.00in /  0mm 0 W/m2
06:34 32.3 °F /  0.2 °C 25.9 °F /  -3.4 °C 30.12in /  1019.9hPa Calm   1mph /  1.6km/h 77% 0.00in /  0mm 0 W/m2
06:39 32.3 °F /  0.2 °C 25.9 °F /  -3.4 °C 30.12in /  1019.9hPa Calm     77% 0.00in /  0mm 0 W/m2
06:44 32.3 °F /  0.2 °C 25.9 °F /  -3.4 °C 30.12in /  1019.9hPa West 0.2mph /  0.3km/h 3mph /  4.8km/h 77% 0.00in /  0mm 0 W/m2
06:49 32.3 °F /  0.2 °C 25.9 °F /  -3.4 °C 30.12in /  1019.9hPa Calm   3mph /  4.8km/h 77% 0.00in /  0mm 0 W/m2
06:54 32.3 °F /  0.2 °C 25.9 °F /  -3.4 °C 30.12in /  1019.9hPa West 0.1mph /  0.2km/h 3mph /  4.8km/h 77% 0.00in /  0mm 0 W/m2
06:59 32.2 °F /  0.1 °C 25.8 °F /  -3.4 °C 30.12in /  1019.9hPa West 0.1mph /  0.2km/h 3mph /  4.8km/h 77% 0.00in /  0mm 0 W/m2
07:04 32.2 °F /  0.1 °C 25.8 °F /  -3.4 °C 30.13in /  1020.2hPa West 0.2mph /  0.3km/h 3mph /  4.8km/h 77% 0.00in /  0mm 0 W/m2
07:09 32.2 °F /  0.1 °C 25.9 °F /  -3.4 °C 30.13in /  1020.2hPa Calm   2mph /  3.2km/h 77.4% 0.00in /  0mm 0 W/m2
07:14 32.2 °F /  0.1 °C 26 °F /  -3.3 °C 30.12in /  1019.9hPa Calm   2mph /  3.2km/h 77.7% 0.00in /  0mm 0 W/m2
07:19 32.2 °F /  0.1 °C 25.9 °F /  -3.4 °C 30.12in /  1019.9hPa West 0.1mph /  0.2km/h 2mph /  3.2km/h 77.3% 0.00in /  0mm 0 W/m2
07:24 32.3 °F /  0.2 °C 25.9 °F /  -3.4 °C 30.12in /  1019.9hPa Calm   2mph /  3.2km/h 77% 0.00in /  0mm 7 W/m2
07:29 32.3 °F /  0.2 °C 25.9 °F /  -3.4 °C 30.12in /  1019.9hPa West 0.2mph /  0.3km/h 2mph /  3.2km/h 77% 0.00in /  0mm 9 W/m2
07:34 32.3 °F /  0.2 °C 25.9 °F /  -3.4 °C 30.12in /  1019.9hPa Calm   2mph /  3.2km/h 77% 0.00in /  0mm 11 W/m2
07:39 32.4 °F /  0.2 °C 26 °F /  -3.3 °C 30.12in /  1019.9hPa West 0.1mph /  0.2km/h 1mph /  1.6km/h 77% 0.00in /  0mm 14 W/m2
07:44 32.4 °F /  0.2 °C 26 °F /  -3.3 °C 30.12in /  1019.9hPa Calm   1mph /  1.6km/h 77% 0.00in /  0mm 14 W/m2
07:49 32.5 °F /  0.3 °C 26.1 °F /  -3.3 °C 30.12in /  1019.9hPa West 0.1mph /  0.2km/h 2mph /  3.2km/h 77% 0.00in /  0mm 16 W/m2
07:54 32.6 °F /  0.3 °C 26.1 °F /  -3.3 °C 30.12in /  1019.9hPa Calm   2mph /  3.2km/h 76.7% 0.00in /  0mm 18 W/m2
07:59 32.6 °F /  0.3 °C 25.9 °F /  -3.4 °C 30.12in /  1019.9hPa West 0.1mph /  0.2km/h 3mph /  4.8km/h 76% 0.00in /  0mm 16 W/m2
08:09 32.8 °F /  0.4 °C 26.1 °F /  -3.3 °C 30.11in /  1019.5hPa Calm     76% 0.00in /  0mm 26 W/m2
08:14 32.9 °F /  0.5 °C 26 °F /  -3.3 °C 30.11in /  1019.5hPa Calm     75.3% 0.00in /  0mm 32 W/m2
08:19 33 °F /  0.6 °C 26.2 °F /  -3.2 °C 30.11in /  1019.5hPa Calm     75.7% 0.00in /  0mm 33 W/m2
08:24 33.1 °F /  0.6 °C 26.4 °F /  -3.1 °C 30.11in /  1019.5hPa Calm     76% 0.00in /  0mm 33 W/m2
08:29 33.2 °F /  0.7 °C 26.3 °F /  -3.2 °C 30.11in /  1019.5hPa West 0.1mph /  0.2km/h 2mph /  3.2km/h 75.3% 0.00in /  0mm 42 W/m2
08:34 33.3 °F /  0.7 °C 26.3 °F /  -3.2 °C 30.11in /  1019.5hPa Calm   2mph /  3.2km/h 75% 0.00in /  0mm 40 W/m2
08:39 33.4 °F /  0.8 °C 26.3 °F /  -3.2 °C 30.10in /  1019.2hPa WNW 0.6mph /  1km/h 5mph /  8km/h 74.8% 0.00in /  0mm 53 W/m2
08:44 33.5 °F /  0.8 °C 26.1 °F /  -3.3 °C 30.10in /  1019.2hPa WNW 0.3mph /  0.5km/h 5mph /  8km/h 74% 0.00in /  0mm 56 W/m2
08:49 33.6 °F /  0.9 °C 26.2 °F /  -3.2 °C 30.09in /  1018.8hPa Calm   5mph /  8km/h 74% 0.00in /  0mm 56 W/m2
08:54 33.7 °F /  0.9 °C 26.2 °F /  -3.2 °C 30.09in /  1018.8hPa NW 0.1mph /  0.2km/h 5mph /  8km/h 73.8% 0.00in /  0mm 56 W/m2
08:59 33.7 °F /  0.9 °C 26.2 °F /  -3.2 °C 30.09in /  1018.8hPa NW 0.1mph /  0.2km/h 5mph /  8km/h 73.6% 0.00in /  0mm 77 W/m2
09:04 33.8 °F /  1 °C 26.1 °F /  -3.3 °C 30.10in /  1019.2hPa NW 0.1mph /  0.2km/h 5mph /  8km/h 73.2% 0.00in /  0mm 76 W/m2
09:09 33.9 °F /  1.1 °C 26.1 °F /  -3.3 °C 30.09in /  1018.8hPa NW 0.1mph /  0.2km/h 2mph /  3.2km/h 73% 0.00in /  0mm 69 W/m2
09:14 33.9 °F /  1.1 °C 26.2 °F /  -3.2 °C 30.09in /  1018.8hPa Calm   2mph /  3.2km/h 73% 0.00in /  0mm 113 W/m2
09:19 34.1 °F /  1.2 °C 26.2 °F /  -3.2 °C 30.09in /  1018.8hPa NNE 0.7mph /  1.1km/h 5mph /  8km/h 72.5% 0.00in /  0mm 139 W/m2
09:24 34.2 °F /  1.2 °C 26.2 °F /  -3.2 °C 30.08in /  1018.5hPa NE 0.5mph /  0.8km/h 5mph /  8km/h 72.1% 0.00in /  0mm 153 W/m2
09:29 34.4 °F /  1.3 °C 26.3 °F /  -3.2 °C 30.08in /  1018.5hPa Calm   5mph /  8km/h 72% 0.00in /  0mm 155 W/m2
09:34 34.6 °F /  1.4 °C 26.6 °F /  -3 °C 30.08in /  1018.5hPa Calm   5mph /  8km/h 72.4% 0.00in /  0mm 149 W/m2
09:39 34.9 °F /  1.6 °C 26.6 °F /  -3 °C 30.08in /  1018.5hPa NE 0.6mph /  1km/h 3mph /  4.8km/h 71.5% 0.00in /  0mm 149 W/m2
09:44 35.1 °F /  1.7 °C 26.5 °F /  -3.1 °C 30.08in /  1018.5hPa NNE 1mph /  1.6km/h 3mph /  4.8km/h 70.5% 0.00in /  0mm 137 W/m2
09:49 35.3 °F /  1.8 °C 26.1 °F /  -3.3 °C 30.08in /  1018.5hPa NNE 0.5mph /  0.8km/h 3mph /  4.8km/h 69% 0.00in /  0mm 146 W/m2
09:54 35.5 °F /  1.9 °C 26.5 °F /  -3.1 °C 30.08in /  1018.5hPa Calm   3mph /  4.8km/h 69.5% 0.00in /  0mm 155 W/m2
09:59 35.7 °F /  2.1 °C 26.4 °F /  -3.1 °C 30.08in /  1018.5hPa NNE 0.2mph /  0.3km/h 4mph /  6.4km/h 68.7% 0.00in /  0mm 149 W/m2
10:04 35.9 °F /  2.2 °C 26.6 °F /  -3 °C 30.08in /  1018.5hPa Calm   4mph /  6.4km/h 68.5% 0.00in /  0mm 146 W/m2
10:09 36.1 °F /  2.3 °C 26.4 °F /  -3.1 °C 30.07in /  1018.2hPa NNE 0.4mph /  0.6km/h 3mph /  4.8km/h 67.5% 0.00in /  0mm 134 W/m2
10:14 36.1 °F /  2.3 °C 26.2 °F /  -3.2 °C 30.07in /  1018.2hPa NNE 0.8mph /  1.3km/h 5mph /  8km/h 67% 0.00in /  0mm 137 W/m2
10:19 36.1 °F /  2.3 °C 25.9 °F /  -3.4 °C 30.06in /  1017.8hPa NE 0.6mph /  1km/h 5mph /  8km/h 66.2% 0.00in /  0mm 132 W/m2
10:24 36.1 °F /  2.3 °C 26.1 °F /  -3.3 °C 30.06in /  1017.8hPa NE 0.5mph /  0.8km/h 5mph /  8km/h 66.7% 0.00in /  0mm 135 W/m2
10:29 36.2 °F /  2.3 °C 26.6 °F /  -3 °C 30.05in /  1017.5hPa NNE 0.2mph /  0.3km/h 5mph /  8km/h 67.7% 0.00in /  0mm 130 W/m2
10:34 36.4 °F /  2.4 °C 26.5 °F /  -3.1 °C 30.05in /  1017.5hPa NNE 1.5mph /  2.4km/h 6mph /  9.7km/h 67% 0.00in /  0mm 121 W/m2
10:39 36.4 °F /  2.4 °C 26.3 °F /  -3.2 °C 30.05in /  1017.5hPa NE 0.1mph /  0.2km/h 6mph /  9.7km/h 66.3% 0.00in /  0mm 107 W/m2
10:44 36.5 °F /  2.5 °C 26.3 °F /  -3.2 °C 30.05in /  1017.5hPa Calm   6mph /  9.7km/h 66.2% 0.00in /  0mm 104 W/m2
10:49 36.5 °F /  2.5 °C 26.2 °F /  -3.2 °C 30.04in /  1017.2hPa NE 0.3mph /  0.5km/h 6mph /  9.7km/h 66% 0.00in /  0mm 118 W/m2
10:54 36.5 °F /  2.5 °C 26.2 °F /  -3.2 °C 30.04in /  1017.2hPa NE 0.1mph /  0.2km/h 6mph /  9.7km/h 66% 0.00in /  0mm 118 W/m2
10:59 36.5 °F /  2.5 °C 26.2 °F /  -3.2 °C 30.04in /  1017.2hPa NE 0.5mph /  0.8km/h 6mph /  9.7km/h 65.9% 0.00in /  0mm 72 W/m2
11:04 36.5 °F /  2.5 °C 25.6 °F /  -3.6 °C 30.03in /  1016.8hPa NE 0.3mph /  0.5km/h 6mph /  9.7km/h 64.3% 0.00in /  0mm 93 W/m2
11:09 36.5 °F /  2.5 °C 25.9 °F /  -3.4 °C 30.03in /  1016.8hPa NE 0.4mph /  0.6km/h 3mph /  4.8km/h 65% 0.00in /  0mm 104 W/m2
11:14 36.5 °F /  2.5 °C 25.9 °F /  -3.4 °C 30.03in /  1016.8hPa Calm   3mph /  4.8km/h 65% 0.00in /  0mm 109 W/m2
11:19 36.6 °F /  2.6 °C 26.3 °F /  -3.2 °C 30.02in /  1016.5hPa Calm   3mph /  4.8km/h 66% 0.00in /  0mm 111 W/m2
11:24 36.6 °F /  2.6 °C 26.4 °F /  -3.1 °C 30.02in /  1016.5hPa NE 0.6mph /  1km/h 3mph /  4.8km/h 66.1% 0.00in /  0mm 105 W/m2
11:29 36.8 °F /  2.7 °C 26.3 °F /  -3.2 °C 30.02in /  1016.5hPa Calm   3mph /  4.8km/h 65.4% 0.00in /  0mm 86 W/m2
11:34 36.9 °F /  2.7 °C 26.5 °F /  -3.1 °C 30.01in /  1016.1hPa NE 0.3mph /  0.5km/h 3mph /  4.8km/h 65.6% 0.00in /  0mm 83 W/m2
11:39 36.9 °F /  2.7 °C 26.5 °F /  -3.1 °C 30.00in /  1015.8hPa NNE 0.1mph /  0.2km/h 2mph /  3.2km/h 65.5% 0.00in /  0mm 79 W/m2
11:44 36.9 °F /  2.7 °C 26.4 °F /  -3.1 °C 30.00in /  1015.8hPa NNE 0.6mph /  1km/h 3mph /  4.8km/h 65.5% 0.00in /  0mm 72 W/m2
11:49 36.9 °F /  2.7 °C 26.3 °F /  -3.2 °C 30.00in /  1015.8hPa Calm   3mph /  4.8km/h 65% 0.00in /  0mm 81 W/m2
11:54 36.9 °F /  2.7 °C 26.5 °F /  -3.1 °C 29.99in /  1015.5hPa North 0.9mph /  1.4km/h 6mph /  9.7km/h 65.7% 0.00in /  0mm 93 W/m2
11:59 36.9 °F /  2.7 °C 26.3 °F /  -3.2 °C 29.99in /  1015.5hPa North 0.6mph /  1km/h 6mph /  9.7km/h 65% 0.00in /  0mm 123 W/m2
12:09 36.9 °F /  2.7 °C 26.3 °F /  -3.2 °C 29.98in /  1015.1hPa North 0.7mph /  1.1km/h 9mph /  14.5km/h 65% 0.00in /  0mm 125 W/m2
12:14 36.9 °F /  2.7 °C 26.3 °F /  -3.2 °C 29.98in /  1015.1hPa NW 0.7mph /  1.1km/h 9mph /  14.5km/h 65% 0.00in /  0mm 107 W/m2
12:19 37 °F /  2.8 °C 26.5 °F /  -3.1 °C 29.97in /  1014.8hPa NNE 0.6mph /  1km/h 9mph /  14.5km/h 65.5% 0.00in /  0mm 79 W/m2
12:24 37 °F /  2.8 °C 26.6 °F /  -3 °C 29.97in /  1014.8hPa NNE 0.3mph /  0.5km/h 9mph /  14.5km/h 65.7% 0.00in /  0mm 60 W/m2
12:29 36.9 °F /  2.7 °C 26.3 °F /  -3.2 °C 29.96in /  1014.4hPa NNE 0.6mph /  1km/h 9mph /  14.5km/h 65% 0.00in /  0mm 70 W/m2
12:34 36.8 °F /  2.7 °C 26.5 °F /  -3.1 °C 29.96in /  1014.4hPa NNE 0.4mph /  0.6km/h 9mph /  14.5km/h 65.9% 0.00in /  0mm 91 W/m2
12:39 36.7 °F /  2.6 °C 26.4 °F /  -3.1 °C 29.96in /  1014.4hPa NE 1.4mph /  2.3km/h 7mph /  11.3km/h 66% 0.00in /  0mm 105 W/m2
12:44 36.5 °F /  2.5 °C 26.2 °F /  -3.2 °C 29.95in /  1014.1hPa NE 0.8mph /  1.3km/h 7mph /  11.3km/h 66% 0.00in /  0mm 97 W/m2
12:49 36.4 °F /  2.4 °C 26.5 °F /  -3.1 °C 29.95in /  1014.1hPa NE 0.7mph /  1.1km/h 7mph /  11.3km/h 67.1% 0.00in /  0mm 81 W/m2
12:54 36.5 °F /  2.5 °C 26.7 °F /  -2.9 °C 29.95in /  1014.1hPa NE 0.4mph /  0.6km/h 7mph /  11.3km/h 67.3% 0.00in /  0mm 90 W/m2
12:59 36.6 °F /  2.6 °C 26.8 °F /  -2.9 °C 29.94in /  1013.8hPa NE 0.1mph /  0.2km/h 7mph /  11.3km/h 67.3% 0.00in /  0mm 90 W/m2
13:04 36.7 °F /  2.6 °C 27.3 °F /  -2.6 °C 29.94in /  1013.8hPa NE 1mph /  1.6km/h 7mph /  11.3km/h 68.7% 0.00in /  0mm 67 W/m2
13:09 36.7 °F /  2.6 °C 26.7 °F /  -2.9 °C 29.94in /  1013.8hPa NE 1.1mph /  1.8km/h 5mph /  8km/h 66.6% 0.00in /  0mm 86 W/m2
13:14 36.6 °F /  2.6 °C 26.7 °F /  -2.9 °C 29.94in /  1013.8hPa NNE 0.5mph /  0.8km/h 5mph /  8km/h 67% 0.00in /  0mm 100 W/m2
13:19 36.6 °F /  2.6 °C 27 °F /  -2.8 °C 29.94in /  1013.8hPa North 0.3mph /  0.5km/h 5mph /  8km/h 67.7% 0.00in /  0mm 111 W/m2
13:24 36.6 °F /  2.6 °C 27.2 °F /  -2.7 °C 29.95in /  1014.1hPa Calm   5mph /  8km/h 68.3% 0.00in /  0mm 107 W/m2
13:29 36.7 °F /  2.6 °C 27.4 °F /  -2.6 °C 29.94in /  1013.8hPa NNE 0.5mph /  0.8km/h 5mph /  8km/h 68.8% 0.00in /  0mm 79 W/m2
13:34 36.7 °F /  2.6 °C 27 °F /  -2.8 °C 29.94in /  1013.8hPa NNE 0.3mph /  0.5km/h 5mph /  8km/h 67.5% 0.00in /  0mm 72 W/m2
13:39 36.7 °F /  2.6 °C 26.7 °F /  -2.9 °C 29.94in /  1013.8hPa NE 1mph /  1.6km/h 4mph /  6.4km/h 66.9% 0.00in /  0mm 76 W/m2
13:44 36.6 °F /  2.6 °C 26.7 °F /  -2.9 °C 29.94in /  1013.8hPa NE 0.1mph /  0.2km/h 4mph /  6.4km/h 67.1% 0.00in /  0mm 70 W/m2
13:49 36.6 °F /  2.6 °C 27 °F /  -2.8 °C 29.93in /  1013.4hPa NNE 1.6mph /  2.6km/h 5mph /  8km/h 67.9% 0.00in /  0mm 49 W/m2
13:54 36.6 °F /  2.6 °C 27.1 °F /  -2.7 °C 29.92in /  1013.1hPa North 0.7mph /  1.1km/h 5mph /  8km/h 68% 0.00in /  0mm 46 W/m2
13:59 36.6 °F /  2.6 °C 27.4 °F /  -2.6 °C 29.92in /  1013.1hPa North 0.6mph /  1km/h 5mph /  8km/h 68.9% 0.00in /  0mm 42 W/m2
14:04 36.6 °F /  2.6 °C 27.3 °F /  -2.6 °C 29.91in /  1012.8hPa North 1.2mph /  1.9km/h 6mph /  9.7km/h 68.6% 0.00in /  0mm 42 W/m2
14:09 36.6 °F /  2.6 °C 27.2 °F /  -2.7 °C 29.91in /  1012.8hPa North 0.5mph /  0.8km/h 6mph /  9.7km/h 68.5% 0.00in /  0mm 44 W/m2
14:14 36.5 °F /  2.5 °C 27 °F /  -2.8 °C 29.91in /  1012.8hPa NNE 0.2mph /  0.3km/h 6mph /  9.7km/h 68% 0.00in /  0mm 46 W/m2
14:19 36.5 °F /  2.5 °C 27.2 °F /  -2.7 °C 29.91in /  1012.8hPa NNW 1.1mph /  1.8km/h 6mph /  9.7km/h 68.7% 0.00in /  0mm 35 W/m2
14:24 36.5 °F /  2.5 °C 27.3 °F /  -2.6 °C 29.91in /  1012.8hPa NNW 0.8mph /  1.3km/h 6mph /  9.7km/h 69% 0.00in /  0mm 32 W/m2
14:29 36.4 °F /  2.4 °C 27.2 °F /  -2.7 °C 29.90in /  1012.4hPa NNW 1.1mph /  1.8km/h 6mph /  9.7km/h 69% 0.00in /  0mm 26 W/m2
14:34 36.4 °F /  2.4 °C 27.2 °F /  -2.7 °C 29.90in /  1012.4hPa NNW 0.7mph /  1.1km/h 6mph /  9.7km/h 69% 0.00in /  0mm 25 W/m2
14:39 36.3 °F /  2.4 °C 27.2 °F /  -2.7 °C 29.89in /  1012.1hPa NNW 2.6mph /  4.2km/h 9mph /  14.5km/h 69% 0.00in /  0mm 28 W/m2
14:44 36.2 °F /  2.3 °C 27.1 °F /  -2.7 °C 29.89in /  1012.1hPa NNW 0.9mph /  1.4km/h 9mph /  14.5km/h 69% 0.00in /  0mm 25 W/m2
14:49 36.2 °F /  2.3 °C 27 °F /  -2.8 °C 29.89in /  1012.1hPa NNW 1.1mph /  1.8km/h 9mph /  14.5km/h 69% 0.00in /  0mm 26 W/m2
14:54 36.2 °F /  2.3 °C 27.3 °F /  -2.6 °C 29.89in /  1012.1hPa NNW 0.9mph /  1.4km/h 9mph /  14.5km/h 69.9% 0.00in /  0mm 19 W/m2
14:59 36.1 °F /  2.3 °C 27.3 °F /  -2.6 °C 29.89in /  1012.1hPa NW 1.4mph /  2.3km/h 9mph /  14.5km/h 70% 0.00in /  0mm 19 W/m2
15:04 36.1 °F /  2.3 °C 27.2 °F /  -2.7 °C 29.88in /  1011.7hPa NNW 0.5mph /  0.8km/h 9mph /  14.5km/h 70% 0.00in /  0mm 19 W/m2
15:09 36 °F /  2.2 °C 27.2 °F /  -2.7 °C 29.88in /  1011.7hPa ENE 0.6mph /  1km/h 4mph /  6.4km/h 70% 0.00in /  0mm 26 W/m2
15:14 36 °F /  2.2 °C 27.2 °F /  -2.7 °C 29.88in /  1011.7hPa NE 0.1mph /  0.2km/h 4mph /  6.4km/h 70% 0.00in /  0mm 26 W/m2
15:19 36 °F /  2.2 °C 27.2 °F /  -2.7 °C 29.88in /  1011.7hPa ENE 0.1mph /  0.2km/h 4mph /  6.4km/h 70% 0.00in /  0mm 23 W/m2
15:24 36 °F /  2.2 °C 27.2 °F /  -2.7 °C 29.88in /  1011.7hPa NNW 1.8mph /  2.9km/h 7mph /  11.3km/h 70.2% 0.00in /  0mm 18 W/m2
15:29 36 °F /  2.2 °C 27.2 °F /  -2.7 °C 29.88in /  1011.7hPa NNW 0.5mph /  0.8km/h 7mph /  11.3km/h 70% 0.00in /  0mm 9 W/m2
15:34 36 °F /  2.2 °C 27.2 °F /  -2.7 °C 29.88in /  1011.7hPa NNW 1.6mph /  2.6km/h 7mph /  11.3km/h 70% 0.00in /  0mm 9 W/m2
15:39 36 °F /  2.2 °C 27.2 °F /  -2.7 °C 29.88in /  1011.7hPa NNW 1.2mph /  1.9km/h 5mph /  8km/h 70% 0.00in /  0mm 7 W/m2
15:44 36 °F /  2.2 °C 27.2 °F /  -2.7 °C 29.88in /  1011.7hPa NNW 0.5mph /  0.8km/h 5mph /  8km/h 70% 0.00in /  0mm 7 W/m2
15:49 35.9 °F /  2.2 °C 27.1 °F /  -2.7 °C 29.88in /  1011.7hPa NNW 1mph /  1.6km/h 5mph /  8km/h 70% 0.00in /  0mm 7 W/m2
15:54 35.9 °F /  2.2 °C 27.1 °F /  -2.7 °C 29.88in /  1011.7hPa NNW 0.3mph /  0.5km/h 5mph /  8km/h 70% 0.00in /  0mm 7 W/m2
15:59 36 °F /  2.2 °C 27.3 °F /  -2.6 °C 29.88in /  1011.7hPa Calm   5mph /  8km/h 70.5% 0.00in /  0mm 7 W/m2
16:00 36 °F /  2.2 °C 27.5 °F /  -2.5 °C 29.88in /  1011.7hPa Calm   5mph /  8km/h 71% 0.00in /  0mm 0 W/m2
16:09 36 °F /  2.2 °C 27.3 °F /  -2.6 °C 29.88in /  1011.7hPa NNW 0.8mph /  1.3km/h 7mph /  11.3km/h 70.2% 0.00in /  0mm 0 W/m2
16:14 35.9 °F /  2.2 °C 27.1 °F /  -2.7 °C 29.88in /  1011.7hPa NNW 1.5mph /  2.4km/h 7mph /  11.3km/h 70% 0.00in /  0mm 0 W/m2
16:19 35.9 °F /  2.2 °C 27.4 °F /  -2.6 °C 29.88in /  1011.7hPa NNW 0.8mph /  1.3km/h 7mph /  11.3km/h 71% 0.00in /  0mm 0 W/m2
16:24 35.8 °F /  2.1 °C 27.3 °F /  -2.6 °C 29.88in /  1011.7hPa NNW 0.9mph /  1.4km/h 7mph /  11.3km/h 71% 0.00in /  0mm 0 W/m2
16:29 35.7 °F /  2.1 °C 27.3 °F /  -2.6 °C 29.88in /  1011.7hPa NW 1.5mph /  2.4km/h 7mph /  11.3km/h 71% 0.00in /  0mm 0 W/m2
16:34 35.7 °F /  2.1 °C 27.2 °F /  -2.7 °C 29.88in /  1011.7hPa NW 2.3mph /  3.7km/h 7mph /  11.3km/h 71% 0.00in /  0mm 0 W/m2
16:39 35.6 °F /  2 °C 27.1 °F /  -2.7 °C 29.88in /  1011.7hPa NW 2.4mph /  3.9km/h 9mph /  14.5km/h 71% 0.00in /  0mm 0 W/m2
16:44 35.5 °F /  1.9 °C 27.3 °F /  -2.6 °C 29.88in /  1011.7hPa NW 0.4mph /  0.6km/h 9mph /  14.5km/h 71.9% 0.00in /  0mm 0 W/m2
16:49 35.5 °F /  1.9 °C 27.5 °F /  -2.5 °C 29.88in /  1011.7hPa NNW 1.7mph /  2.7km/h 9mph /  14.5km/h 72.5% 0.00in /  0mm 0 W/m2
16:54 35.4 °F /  1.9 °C 27.6 °F /  -2.4 °C 29.88in /  1011.7hPa NNW 1.1mph /  1.8km/h 9mph /  14.5km/h 73% 0.00in /  0mm 0 W/m2
16:59 35.4 °F /  1.9 °C 27.6 °F /  -2.4 °C 29.88in /  1011.7hPa NNW 2mph /  3.2km/h 9mph /  14.5km/h 73% 0.00in /  0mm 0 W/m2
17:04 35.4 °F /  1.9 °C 27.6 °F /  -2.4 °C 29.88in /  1011.7hPa NNW 0.2mph /  0.3km/h 9mph /  14.5km/h 73% 0.00in /  0mm 0 W/m2
17:09 35.3 °F /  1.8 °C 27.7 °F /  -2.4 °C 29.88in /  1011.7hPa NNW 1.1mph /  1.8km/h 6mph /  9.7km/h 73.4% 0.00in /  0mm 0 W/m2
17:14 35.3 °F /  1.8 °C 27.9 °F /  -2.3 °C 29.88in /  1011.7hPa NNW 0.3mph /  0.5km/h 6mph /  9.7km/h 74% 0.00in /  0mm 0 W/m2
17:19 35.3 °F /  1.8 °C 28.1 °F /  -2.2 °C 29.88in /  1011.7hPa NNW 1.9mph /  3.1km/h 6mph /  9.7km/h 74.9% 0.00in /  0mm 0 W/m2
17:24 35.3 °F /  1.8 °C 28.3 °F /  -2.1 °C 29.88in /  1011.7hPa NNW 1.8mph /  2.9km/h 9mph /  14.5km/h 75.5% 0.00in /  0mm 0 W/m2
17:29 35.2 °F /  1.8 °C 28.8 °F /  -1.8 °C 29.88in /  1011.7hPa NNW 1.7mph /  2.7km/h 9mph /  14.5km/h 77.2% 0.00in /  0mm 0 W/m2
17:34 35.1 °F /  1.7 °C 29 °F /  -1.7 °C 29.88in /  1011.7hPa NNW 1.8mph /  2.9km/h 9mph /  14.5km/h 78.1% 0.00in /  0mm 0 W/m2
17:39 34.9 °F /  1.6 °C 29.1 °F /  -1.6 °C 29.88in /  1011.7hPa NNW 1.2mph /  1.9km/h 6mph /  9.7km/h 79.3% 0.00in /  0mm 0 W/m2
17:44 34.8 °F /  1.6 °C 29.4 °F /  -1.4 °C 29.88in /  1011.7hPa NNW 1mph /  1.6km/h 6mph /  9.7km/h 80.5% 0.00in /  0mm 0 W/m2
17:49 34.6 °F /  1.4 °C 29.5 °F /  -1.4 °C 29.87in /  1011.4hPa NW 2.8mph /  4.5km/h 7mph /  11.3km/h 81.4% 0.00in /  0mm 0 W/m2
17:54 34.4 °F /  1.3 °C 29.6 °F /  -1.3 °C 29.88in /  1011.7hPa NNW 2.5mph /  4km/h 7mph /  11.3km/h 82.6% 0.00in /  0mm 0 W/m2
17:59 34.2 °F /  1.2 °C 29.6 °F /  -1.3 °C 29.87in /  1011.4hPa NNW 2.3mph /  3.7km/h 7mph /  11.3km/h 83.2% 0.00in /  0mm 0 W/m2
18:04 34 °F /  1.1 °C 29.7 °F /  -1.3 °C 29.87in /  1011.4hPa NNW 1.9mph /  3.1km/h 7mph /  11.3km/h 84% 0.00in /  0mm 0 W/m2
18:09 33.9 °F /  1.1 °C 29.7 °F /  -1.3 °C 29.87in /  1011.4hPa NNW 0.8mph /  1.3km/h 7mph /  11.3km/h 84.5% 0.00in /  0mm 0 W/m2
18:14 33.8 °F /  1 °C 29.8 °F /  -1.2 °C 29.86in /  1011.1hPa NNW 0.6mph /  1km/h 7mph /  11.3km/h 85% 0.00in /  0mm 0 W/m2
18:19 33.8 °F /  1 °C 30 °F /  -1.1 °C 29.86in /  1011.1hPa NNW 0.8mph /  1.3km/h 7mph /  11.3km/h 85.9% 0.00in /  0mm 0 W/m2
18:24 33.8 °F /  1 °C 30.3 °F /  -0.9 °C 29.86in /  1011.1hPa NNW 2.2mph /  3.5km/h 9mph /  14.5km/h 87% 0.00in /  0mm 0 W/m2
18:29 33.8 °F /  1 °C 30.3 °F /  -0.9 °C 29.86in /  1011.1hPa NW 0.9mph /  1.4km/h 9mph /  14.5km/h 86.9% 0.00in /  0mm 0 W/m2
18:34 33.8 °F /  1 °C 30.4 °F /  -0.9 °C 29.86in /  1011.1hPa NNW 2.2mph /  3.5km/h 9mph /  14.5km/h 87% 0.00in /  0mm 0 W/m2
18:39 33.8 °F /  1 °C 30.4 °F /  -0.9 °C 29.85in /  1010.7hPa NNW 1.2mph /  1.9km/h 9mph /  14.5km/h 87% 0.00in /  0mm 0 W/m2
18:44 33.8 °F /  1 °C 30.6 °F /  -0.8 °C 29.86in /  1011.1hPa NNW 0.3mph /  0.5km/h 9mph /  14.5km/h 88% 0.00in /  0mm 0 W/m2
18:49 33.9 °F /  1.1 °C 30.7 °F /  -0.7 °C 29.86in /  1011.1hPa NNW 1.1mph /  1.8km/h 9mph /  14.5km/h 88% 0.00in /  0mm 0 W/m2
18:54 33.9 °F /  1.1 °C 30.7 °F /  -0.7 °C 29.86in /  1011.1hPa NNW 1mph /  1.6km/h 9mph /  14.5km/h 88% 0.00in /  0mm 0 W/m2
18:59 33.9 °F /  1.1 °C 30.7 °F /  -0.7 °C 29.86in /  1011.1hPa North 1.2mph /  1.9km/h 9mph /  14.5km/h 88% 0.00in /  0mm 0 W/m2
19:04 33.8 °F /  1 °C 30.6 °F /  -0.8 °C 29.86in /  1011.1hPa North 2mph /  3.2km/h 9mph /  14.5km/h 88% 0.00in /  0mm 0 W/m2
19:09 33.7 °F /  0.9 °C 30.7 °F /  -0.7 °C 29.86in /  1011.1hPa NNW 0.8mph /  1.3km/h 7mph /  11.3km/h 88.7% 0.00in /  0mm 0 W/m2
19:14 33.6 °F /  0.9 °C 30.7 °F /  -0.7 °C 29.86in /  1011.1hPa NNW 1.9mph /  3.1km/h 7mph /  11.3km/h 89% 0.00in /  0mm 0 W/m2
19:19 33.4 °F /  0.8 °C 30.5 °F /  -0.8 °C 29.86in /  1011.1hPa NNW 1.1mph /  1.8km/h 7mph /  11.3km/h 89% 0.00in /  0mm 0 W/m2
19:24 33.3 °F /  0.7 °C 30.4 °F /  -0.9 °C 29.86in /  1011.1hPa NNW 0.9mph /  1.4km/h 7mph /  11.3km/h 89% 0.00in /  0mm 0 W/m2
19:29 33.2 °F /  0.7 °C 30.5 °F /  -0.8 °C 29.86in /  1011.1hPa NNW 1.1mph /  1.8km/h 7mph /  11.3km/h 89.5% 0.00in /  0mm 0 W/m2
19:34 33.1 °F /  0.6 °C 30.5 °F /  -0.8 °C 29.86in /  1011.1hPa Calm   7mph /  11.3km/h 90% 0.00in /  0mm 0 W/m2
19:39 33.1 °F /  0.6 °C 30.5 °F /  -0.8 °C 29.86in /  1011.1hPa NNW 0.8mph /  1.3km/h 4mph /  6.4km/h 90% 0.00in /  0mm 0 W/m2
19:44 33 °F /  0.6 °C 30.4 °F /  -0.9 °C 29.86in /  1011.1hPa NNW 1.6mph /  2.6km/h 7mph /  11.3km/h 90% 0.00in /  0mm 0 W/m2
19:49 32.9 °F /  0.5 °C 30.3 °F /  -0.9 °C 29.86in /  1011.1hPa NNW 0.6mph /  1km/h 7mph /  11.3km/h 90% 0.00in /  0mm 0 W/m2
19:54 32.9 °F /  0.5 °C 30.3 °F /  -0.9 °C 29.86in /  1011.1hPa NNW 0.1mph /  0.2km/h 7mph /  11.3km/h 90.1% 0.00in /  0mm 0 W/m2
19:59 32.8 °F /  0.4 °C 30.5 °F /  -0.8 °C 29.86in /  1011.1hPa NW 1.7mph /  2.7km/h 7mph /  11.3km/h 91% 0.00in /  0mm 0 W/m2
20:00 32.8 °F /  0.4 °C 30.5 °F /  -0.8 °C 29.86in /  1011.1hPa NW 4mph /  6.4km/h 7mph /  11.3km/h 91% 0.00in /  0mm 0 W/m2
20:09 32.7 °F /  0.4 °C 30.4 °F /  -0.9 °C 29.86in /  1011.1hPa NW 0.9mph /  1.4km/h 4mph /  6.4km/h 91% 0.00in /  0mm 0 W/m2
20:14 32.7 °F /  0.4 °C 30.3 °F /  -0.9 °C 29.86in /  1011.1hPa NW 0.7mph /  1.1km/h 5mph /  8km/h 91% 0.00in /  0mm 0 W/m2
20:19 32.6 °F /  0.3 °C 30.3 °F /  -0.9 °C 29.86in /  1011.1hPa NW 1.9mph /  3.1km/h 6mph /  9.7km/h 91% 0.00in /  0mm 0 W/m2
20:24 32.6 °F /  0.3 °C 30.2 °F /  -1 °C 29.86in /  1011.1hPa NW 1.2mph /  1.9km/h 6mph /  9.7km/h 91% 0.00in /  0mm 0 W/m2
20:29 32.5 °F /  0.3 °C 30.4 °F /  -0.9 °C 29.86in /  1011.1hPa NW 0.2mph /  0.3km/h 6mph /  9.7km/h 91.7% 0.00in /  0mm 0 W/m2
20:34 32.5 °F /  0.3 °C 30.4 °F /  -0.9 °C 29.86in /  1011.1hPa NW 1mph /  1.6km/h 6mph /  9.7km/h 91.9% 0.00in /  0mm 0 W/m2
20:39 32.5 °F /  0.3 °C 30.4 °F /  -0.9 °C 29.86in /  1011.1hPa NW 0.9mph /  1.4km/h 5mph /  8km/h 91.8% 0.00in /  0mm 0 W/m2
20:44 32.5 °F /  0.3 °C 30.4 °F /  -0.9 °C 29.86in /  1011.1hPa NW 1.1mph /  1.8km/h 5mph /  8km/h 92% 0.00in /  0mm 0 W/m2
20:49 32.5 °F /  0.3 °C 30.4 °F /  -0.9 °C 29.86in /  1011.1hPa NW 0.1mph /  0.2km/h 5mph /  8km/h 92% 0.00in /  0mm 0 W/m2
20:54 32.4 °F /  0.2 °C 30.3 °F /  -0.9 °C 29.86in /  1011.1hPa NNW 1.2mph /  1.9km/h 6mph /  9.7km/h 92% 0.00in /  0mm 0 W/m2
20:59 32.4 °F /  0.2 °C 30.3 °F /  -0.9 °C 29.86in /  1011.1hPa NNW 0.2mph /  0.3km/h 6mph /  9.7km/h 92% 0.00in /  0mm 0 W/m2
21:04 32.4 °F /  0.2 °C 30.3 °F /  -0.9 °C 29.86in /  1011.1hPa NNW 0.3mph /  0.5km/h 6mph /  9.7km/h 92% 0.00in /  0mm 0 W/m2
21:09 32.4 °F /  0.2 °C 30.3 °F /  -0.9 °C 29.86in /  1011.1hPa NNW 0.9mph /  1.4km/h 5mph /  8km/h 92% 0.00in /  0mm 0 W/m2
21:14 32.3 °F /  0.2 °C 30.2 °F /  -1 °C 29.86in /  1011.1hPa NNW 1.2mph /  1.9km/h 5mph /  8km/h 92% 0.00in /  0mm 0 W/m2
21:19 32.3 °F /  0.2 °C 30.2 °F /  -1 °C 29.86in /  1011.1hPa NNW 0.3mph /  0.5km/h 5mph /  8km/h 92% 0.00in /  0mm 0 W/m2
21:24 32.2 °F /  0.1 °C 30.1 °F /  -1.1 °C 29.86in /  1011.1hPa NNW 2.1mph /  3.4km/h 6mph /  9.7km/h 92% 0.00in /  0mm 0 W/m2
21:29 32.2 °F /  0.1 °C 30.1 °F /  -1.1 °C 29.86in /  1011.1hPa NNW 0.6mph /  1km/h 6mph /  9.7km/h 92% 0.00in /  0mm 0 W/m2
21:33 32.2 °F /  0.1 °C 30.1 °F /  -1.1 °C 29.86in /  1011.1hPa NNW 0.1mph /  0.2km/h 6mph /  9.7km/h 92% 0.00in /  0mm 0 W/m2
Hartford County Weather
Compliments of Weather Underground - 2 mb